createdAt,value
2019-03-29T00:00:50.621Z,16.90
2019-03-29T00:03:19.902Z,27.93
2019-03-29T00:05:49.597Z,23.90
2019-03-29T00:08:18.840Z,20.30
2019-03-29T00:10:48.184Z,21.47
2019-03-29T00:13:17.502Z,28.03
2019-03-29T00:15:46.730Z,21.57
2019-03-29T00:18:16.043Z,28.67
2019-03-29T00:20:45.500Z,25.30
2019-03-29T00:23:14.964Z,21.67
2019-03-29T00:25:44.249Z,21.57
2019-03-29T00:28:13.701Z,22.93
2019-03-29T00:30:43.213Z,20.77
2019-03-29T00:33:12.609Z,21.00
2019-03-29T00:35:42.109Z,21.70
2019-03-29T00:38:11.325Z,22.30
2019-03-29T00:40:40.626Z,22.33
2019-03-29T00:43:10.081Z,20.43
2019-03-29T00:45:39.599Z,25.30
2019-03-29T00:48:09.762Z,26.35
2019-03-29T00:50:39.360Z,27.40
2019-03-29T00:53:09.332Z,20.23
2019-03-29T00:55:39.268Z,18.97
2019-03-29T00:58:08.590Z,20.43
2019-03-29T01:00:45.582Z,25.77
2019-03-29T01:03:15.161Z,25.33
2019-03-29T01:05:44.892Z,24.33
2019-03-29T01:08:14.402Z,24.40
2019-03-29T01:10:43.979Z,20.53
2019-03-29T01:13:13.189Z,24.63
2019-03-29T01:15:42.407Z,24.57
2019-03-29T01:18:11.923Z,25.37
2019-03-29T01:20:41.386Z,21.30
2019-03-29T01:23:10.626Z,21.33
2019-03-29T01:25:40.225Z,23.23
2019-03-29T01:28:09.511Z,21.00
2019-03-29T01:30:38.821Z,21.43
2019-03-29T01:33:08.314Z,18.20
2019-03-29T01:35:37.884Z,25.63
2019-03-29T01:38:20.772Z,26.67
2019-03-29T01:40:38.193Z,25.60
2019-03-29T01:43:07.465Z,19.97
2019-03-29T01:45:37.187Z,14.03
2019-03-29T01:48:07.050Z,18.60
2019-03-29T01:50:36.729Z,15.33
2019-03-29T01:53:06.047Z,18.43
2019-03-29T01:55:35.675Z,14.37
2019-03-29T01:58:05.092Z,16.10
2019-03-29T02:00:36.134Z,18.50
2019-03-29T02:03:05.995Z,16.47
2019-03-29T02:05:35.208Z,15.50
2019-03-29T02:08:05.114Z,15.43
2019-03-29T02:10:34.665Z,17.10
2019-03-29T02:13:04.154Z,16.37
2019-03-29T02:15:33.505Z,15.17
2019-03-29T02:18:02.807Z,16.70
2019-03-29T02:20:32.110Z,21.37
2019-03-29T02:23:01.572Z,20.60
2019-03-29T02:25:31.085Z,16.33
2019-03-29T02:28:00.646Z,21.87
2019-03-29T02:30:31.978Z,23.40
2019-03-29T02:33:01.857Z,21.53
2019-03-29T02:35:32.563Z,18.57
2019-03-29T02:38:01.787Z,23.63
2019-03-29T02:40:31.146Z,23.13
2019-03-29T02:43:00.627Z,22.30
2019-03-29T02:45:30.673Z,29.67
2019-03-29T02:48:00.423Z,27.77
2019-03-29T02:50:29.719Z,28.27
2019-03-29T02:52:59.031Z,28.53
2019-03-29T02:55:28.349Z,26.03
2019-03-29T02:57:57.562Z,30.43
2019-03-29T03:00:27.359Z,27.60
2019-03-29T03:02:57.060Z,31.73
2019-03-29T03:05:26.713Z,30.13
2019-03-29T03:07:56.400Z,29.87
2019-03-29T03:10:25.734Z,29.07
2019-03-29T03:12:55.239Z,36.17
2019-03-29T03:15:24.598Z,31.53
2019-03-29T03:17:54.382Z,30.93
2019-03-29T03:20:23.704Z,35.73
2019-03-29T03:22:53.205Z,35.08
2019-03-29T03:25:22.564Z,33.90
2019-03-29T03:27:52.132Z,32.00
2019-03-29T03:30:21.813Z,37.67
2019-03-29T03:32:51.102Z,42.67
2019-03-29T03:35:20.689Z,34.17
2019-03-29T03:37:49.968Z,37.63
2019-03-29T03:40:19.284Z,37.13
2019-03-29T03:42:48.864Z,38.80
2019-03-29T03:45:18.405Z,42.10
2019-03-29T03:47:48.155Z,38.20
2019-03-29T03:50:33.910Z,35.20
2019-03-29T03:53:04.077Z,32.37
2019-03-29T03:55:34.472Z,44.20
2019-03-29T03:58:04.845Z,39.43
2019-03-29T04:00:57.203Z,39.07
2019-03-29T04:03:27.600Z,35.37
2019-03-29T04:05:57.581Z,34.37
2019-03-29T04:08:27.679Z,42.97
2019-03-29T04:10:58.085Z,46.47
2019-03-29T04:13:27.457Z,40.55
2019-03-29T04:15:56.859Z,39.63
2019-03-29T04:18:26.178Z,44.73
2019-03-29T04:20:55.462Z,47.30
2019-03-29T04:23:25.328Z,37.23
2019-03-29T04:25:55.504Z,36.10
2019-03-29T04:28:24.961Z,41.90
2019-03-29T04:30:54.721Z,33.50
2019-03-29T04:33:23.974Z,37.30
2019-03-29T04:35:53.324Z,41.63
2019-03-29T04:38:22.629Z,38.60
2019-03-29T04:40:51.842Z,37.83
2019-03-29T04:43:21.221Z,41.50
2019-03-29T04:45:50.884Z,42.17
2019-03-29T04:48:20.184Z,34.67
2019-03-29T04:50:49.824Z,42.27
2019-03-29T04:53:19.034Z,43.63
2019-03-29T04:55:48.680Z,42.53
2019-03-29T04:58:18.262Z,42.67
2019-03-29T05:00:50.546Z,39.13
2019-03-29T05:03:20.256Z,42.60
2019-03-29T05:05:49.974Z,35.60
2019-03-29T05:08:19.208Z,39.27
2019-03-29T05:10:48.637Z,37.87
2019-03-29T05:13:18.188Z,46.10
2019-03-29T05:15:49.036Z,42.43
2019-03-29T05:18:18.599Z,48.23
2019-03-29T05:20:48.062Z,41.23
2019-03-29T05:23:17.872Z,48.60
2019-03-29T05:25:47.378Z,41.67
2019-03-29T05:28:17.708Z,40.20
2019-03-29T05:30:47.638Z,44.13
2019-03-29T05:33:17.150Z,38.27
2019-03-29T05:35:46.907Z,45.07
2019-03-29T05:38:16.574Z,41.47
2019-03-29T05:40:45.955Z,49.07
2019-03-29T05:43:15.568Z,41.90
2019-03-29T05:45:44.851Z,37.10
2019-03-29T05:48:14.300Z,41.07
2019-03-29T05:50:44.005Z,43.53
2019-03-29T05:53:13.508Z,44.70
2019-03-29T05:58:36.186Z,48.13
2019-03-29T06:01:05.550Z,44.73
2019-03-29T06:03:35.017Z,38.07
2019-03-29T06:06:04.573Z,36.97
2019-03-29T06:08:34.029Z,40.63
2019-03-29T06:11:04.897Z,41.00
2019-03-29T06:13:34.254Z,37.40
2019-03-29T06:16:06.080Z,48.70
2019-03-29T06:18:34.581Z,42.43
2019-03-29T06:21:04.233Z,41.07
2019-03-29T06:23:33.726Z,50.37
2019-03-29T06:26:03.087Z,42.90
2019-03-29T06:28:32.702Z,44.00
2019-03-29T06:31:02.138Z,45.17
2019-03-29T06:33:31.993Z,44.73
2019-03-29T06:36:02.221Z,40.17
2019-03-29T06:38:34.331Z,45.30
2019-03-29T06:41:06.547Z,41.70
2019-03-29T06:43:35.918Z,37.80
2019-03-29T06:46:06.517Z,42.23
2019-03-29T06:48:36.074Z,42.07
2019-03-29T06:51:05.403Z,44.13
2019-03-29T06:53:34.950Z,39.90
2019-03-29T06:56:04.749Z,45.30
2019-03-29T06:58:36.432Z,44.97
2019-03-29T07:01:05.671Z,41.30
2019-03-29T07:03:35.405Z,44.17
2019-03-29T07:06:04.740Z,39.97
2019-03-29T07:08:34.226Z,40.43
2019-03-29T07:11:16.583Z,46.10
2019-03-29T07:13:35.721Z,46.43
2019-03-29T07:16:04.989Z,40.77
2019-03-29T07:18:34.511Z,40.28
2019-03-29T07:21:04.107Z,44.23
2019-03-29T07:23:33.634Z,43.03
2019-03-29T07:26:02.894Z,42.30
2019-03-29T07:28:32.764Z,39.03
2019-03-29T07:31:02.305Z,37.60
2019-03-29T07:33:31.965Z,35.35
2019-03-29T07:36:01.614Z,38.93
2019-03-29T07:38:31.132Z,39.80
2019-03-29T07:41:00.420Z,38.30
2019-03-29T07:43:29.785Z,43.40
2019-03-29T07:46:02.566Z,40.33
2019-03-29T07:48:32.322Z,44.07
2019-03-29T07:51:01.665Z,38.42
2019-03-29T07:53:31.046Z,37.87
2019-03-29T07:56:01.615Z,34.07
2019-03-29T07:58:31.661Z,39.33
2019-03-29T08:01:01.503Z,40.20
2019-03-29T08:03:30.846Z,37.08
2019-03-29T08:06:00.317Z,36.53
2019-03-29T08:08:33.338Z,31.57
2019-03-29T08:11:00.557Z,34.85
2019-03-29T08:13:30.052Z,42.75
2019-03-29T08:15:59.339Z,36.40
2019-03-29T08:18:28.788Z,32.25
2019-03-29T08:20:58.377Z,36.83
2019-03-29T08:23:28.860Z,31.30
2019-03-29T08:25:58.561Z,33.63
2019-03-29T08:28:28.342Z,32.60
2019-03-29T08:30:57.980Z,36.98
2019-03-29T08:33:27.325Z,32.00
2019-03-29T08:35:56.651Z,36.45
2019-03-29T08:38:26.255Z,26.93
2019-03-29T08:40:56.004Z,31.20
2019-03-29T08:43:25.289Z,34.60
2019-03-29T08:45:57.417Z,30.00
2019-03-29T08:48:25.499Z,28.67
2019-03-29T08:50:55.475Z,33.90
2019-03-29T08:53:27.412Z,27.77
2019-03-29T08:55:55.966Z,30.88
2019-03-29T08:58:25.268Z,32.50
2019-03-29T09:00:54.477Z,28.70
2019-03-29T09:03:24.052Z,29.43
2019-03-29T09:05:54.725Z,31.73
2019-03-29T09:08:24.588Z,29.80
2019-03-29T09:10:54.571Z,28.23
2019-03-29T09:13:24.105Z,28.50
2019-03-29T09:15:53.606Z,37.33
2019-03-29T09:18:25.728Z,23.38
2019-03-29T09:20:54.430Z,35.50
2019-03-29T09:23:23.772Z,27.93
2019-03-29T09:25:53.005Z,29.82
2019-03-29T09:28:22.313Z,24.47
2019-03-29T09:30:51.988Z,23.67
2019-03-29T09:33:22.013Z,24.33
2019-03-29T09:35:51.797Z,22.97
2019-03-29T09:38:21.558Z,27.40
2019-03-29T09:40:58.850Z,21.33
2019-03-29T09:43:22.180Z,22.50
2019-03-29T09:45:51.788Z,19.90
2019-03-29T09:48:21.629Z,19.12
2019-03-29T09:50:51.201Z,22.70
2019-03-29T09:53:20.997Z,21.80
2019-03-29T09:55:53.299Z,18.42
2019-03-29T09:58:21.899Z,19.17
2019-03-29T10:00:51.298Z,16.90
2019-03-29T10:03:20.734Z,23.15
2019-03-29T10:05:50.029Z,18.23
2019-03-29T10:08:19.537Z,20.70
2019-03-29T10:10:48.766Z,19.77
2019-03-29T10:13:18.403Z,22.32
2019-03-29T10:15:51.127Z,18.15
2019-03-29T10:18:20.614Z,16.20
2019-03-29T10:20:50.169Z,20.05
2019-03-29T10:23:19.654Z,15.32
2019-03-29T10:25:48.972Z,16.85
2019-03-29T10:28:18.551Z,11.38
2019-03-29T10:30:49.402Z,13.08
2019-03-29T10:33:18.669Z,13.48
2019-03-29T10:35:52.701Z,13.03
2019-03-29T10:38:19.133Z,9.63
2019-03-29T10:40:48.393Z,14.23
2019-03-29T10:43:18.269Z,13.15
2019-03-29T10:45:47.549Z,11.85
2019-03-29T10:48:16.895Z,18.70
2019-03-29T10:50:46.341Z,12.35
2019-03-29T10:53:15.569Z,14.03
2019-03-29T10:55:44.852Z,8.45
2019-03-29T10:58:14.133Z,8.95
2019-03-29T11:00:44.754Z,6.58
2019-03-29T11:03:14.168Z,7.62
2019-03-29T11:05:44.024Z,6.55
2019-03-29T11:08:13.317Z,5.40
2019-03-29T11:10:42.659Z,6.35
2019-03-29T11:13:13.887Z,8.50
2019-03-29T11:15:43.114Z,3.27
2019-03-29T11:18:12.485Z,5.45
2019-03-29T11:20:42.089Z,5.20
2019-03-29T11:23:11.630Z,4.92
2019-03-29T11:25:41.717Z,6.47
2019-03-29T11:28:11.346Z,3.87
2019-03-29T11:30:42.934Z,6.28
2019-03-29T11:33:12.105Z,3.98
2019-03-29T11:35:41.432Z,5.15
2019-03-29T11:38:10.701Z,7.15
2019-03-29T11:40:40.055Z,4.65
2019-03-29T11:43:09.542Z,4.87
2019-03-29T11:45:38.995Z,7.42
2019-03-29T11:48:09.590Z,7.47
2019-03-29T11:50:39.385Z,7.22
2019-03-29T11:53:08.668Z,7.25
2019-03-29T11:55:38.311Z,5.35
2019-03-29T11:58:07.795Z,4.72
2019-03-29T12:00:38.410Z,5.60
2019-03-29T12:03:10.857Z,5.17
2019-03-29T12:05:40.334Z,7.37
2019-03-29T12:08:09.712Z,4.00
2019-03-29T12:10:39.507Z,4.95
2019-03-29T12:13:09.796Z,14.30
2019-03-29T12:15:39.206Z,6.12
2019-03-29T12:18:08.652Z,11.33
2019-03-29T12:20:38.507Z,8.68
2019-03-29T12:23:10.184Z,5.08
2019-03-29T12:25:39.993Z,3.92
2019-03-29T12:28:09.457Z,5.55
2019-03-29T12:30:40.386Z,4.40
2019-03-29T12:33:11.182Z,5.92
2019-03-29T12:35:40.840Z,3.55
2019-03-29T12:38:10.450Z,6.95
2019-03-29T12:40:39.787Z,4.12
2019-03-29T12:43:12.266Z,3.77
2019-03-29T12:45:40.180Z,4.70
2019-03-29T12:48:09.482Z,13.20
2019-03-29T12:50:39.036Z,4.62
2019-03-29T12:53:08.275Z,6.37
2019-03-29T12:55:37.486Z,10.50
2019-03-29T12:58:07.055Z,6.47
2019-03-29T13:00:36.534Z,7.27
2019-03-29T13:03:05.984Z,5.72
2019-03-29T13:05:35.254Z,4.65
2019-03-29T13:08:04.600Z,5.65
2019-03-29T13:10:33.984Z,5.20
2019-03-29T13:13:03.394Z,5.03
2019-03-29T13:15:32.694Z,11.28
2019-03-29T13:18:02.025Z,11.35
2019-03-29T13:20:31.282Z,5.37
2019-03-29T13:23:00.551Z,7.20
2019-03-29T13:25:29.990Z,11.85
2019-03-29T13:27:59.817Z,8.53
2019-03-29T13:30:29.182Z,5.92
2019-03-29T13:32:58.417Z,5.78
2019-03-29T13:35:27.787Z,6.45
2019-03-29T13:37:57.346Z,5.73
2019-03-29T13:40:26.550Z,5.87
2019-03-29T13:42:56.156Z,8.60
2019-03-29T13:45:27.855Z,7.80
2019-03-29T13:47:57.884Z,9.93
2019-03-29T13:50:27.462Z,8.35
2019-03-29T13:52:56.930Z,7.85
2019-03-29T13:55:26.536Z,9.65
2019-03-29T13:57:55.809Z,8.80
2019-03-29T14:00:26.747Z,11.33
2019-03-29T14:02:56.169Z,8.35
2019-03-29T14:05:25.929Z,6.22
2019-03-29T14:07:55.629Z,8.25
2019-03-29T14:10:24.938Z,12.00
2019-03-29T14:12:54.505Z,8.73
2019-03-29T14:15:23.817Z,13.33
2019-03-29T14:17:53.026Z,8.00
2019-03-29T14:20:32.014Z,17.85
2019-03-29T14:23:02.145Z,8.65
2019-03-29T14:25:31.665Z,10.93
2019-03-29T14:28:02.221Z,13.50
2019-03-29T14:30:31.440Z,9.88
2019-03-29T14:33:00.997Z,18.57
2019-03-29T14:35:30.587Z,7.08
2019-03-29T14:38:00.778Z,11.57
2019-03-29T14:40:30.248Z,8.78
2019-03-29T14:42:59.714Z,15.70
2019-03-29T14:45:29.465Z,9.23
2019-03-29T14:47:58.707Z,10.48
2019-03-29T14:50:28.214Z,8.32
2019-03-29T14:52:57.472Z,10.13
2019-03-29T14:55:26.701Z,8.55
2019-03-29T14:57:55.933Z,8.48
2019-03-29T15:00:42.387Z,11.75
2019-03-29T15:03:12.251Z,7.47
2019-03-29T15:05:42.004Z,7.20
2019-03-29T15:08:11.571Z,7.40
2019-03-29T15:10:41.072Z,8.55
2019-03-29T15:13:11.102Z,5.55
2019-03-29T15:15:40.646Z,8.03
2019-03-29T15:18:10.648Z,8.75
2019-03-29T15:20:52.695Z,9.43
2019-03-29T15:23:11.131Z,27.35
2019-03-29T15:25:40.881Z,22.63
2019-03-29T15:28:10.607Z,15.53
2019-03-29T15:30:46.851Z,25.95
2019-03-29T15:33:16.197Z,9.53
2019-03-29T15:35:45.442Z,13.03
2019-03-29T15:38:14.749Z,11.08
2019-03-29T15:40:44.079Z,10.78
2019-03-29T15:43:13.380Z,14.60
2019-03-29T15:45:42.992Z,11.60
2019-03-29T15:48:15.329Z,7.30
2019-03-29T15:50:44.550Z,8.88
2019-03-29T15:53:14.005Z,10.80
2019-03-29T15:55:43.268Z,7.05
2019-03-29T15:58:12.761Z,11.53
2019-03-29T16:00:44.918Z,6.78
2019-03-29T16:03:14.446Z,6.10
2019-03-29T16:05:44.089Z,8.50
2019-03-29T16:08:13.301Z,9.18
2019-03-29T16:10:43.203Z,7.92
2019-03-29T16:13:12.719Z,9.38
2019-03-29T16:15:41.957Z,8.10
2019-03-29T16:18:11.263Z,8.53
2019-03-29T16:20:40.548Z,7.58
2019-03-29T16:23:09.853Z,9.55
2019-03-29T16:25:42.273Z,12.35
2019-03-29T16:28:11.733Z,8.13
2019-03-29T16:30:41.000Z,5.58
2019-03-29T16:33:12.779Z,12.65
2019-03-29T16:35:42.540Z,8.90
2019-03-29T16:38:12.043Z,8.88
2019-03-29T16:40:42.764Z,8.50
2019-03-29T16:43:12.061Z,16.37
2019-03-29T16:45:47.733Z,9.53
2019-03-29T16:48:12.490Z,8.98
2019-03-29T16:50:41.722Z,12.35
2019-03-29T16:53:10.993Z,10.70
2019-03-29T16:55:40.701Z,14.18
2019-03-29T16:58:10.029Z,15.33
2019-03-29T17:00:39.313Z,7.45
2019-03-29T17:03:08.622Z,10.35
2019-03-29T17:05:38.330Z,11.50
2019-03-29T17:08:10.711Z,9.00
2019-03-29T17:10:41.038Z,11.63
2019-03-29T17:13:14.069Z,9.60
2019-03-29T17:15:43.374Z,19.93
2019-03-29T17:18:13.290Z,10.87
2019-03-29T17:20:42.823Z,11.50
2019-03-29T17:23:12.276Z,10.98
2019-03-29T17:25:41.592Z,9.65
2019-03-29T17:28:12.350Z,7.97
2019-03-29T17:30:45.615Z,14.93
2019-03-29T17:33:15.079Z,11.97
2019-03-29T17:35:45.282Z,13.90
2019-03-29T17:38:17.003Z,11.73
2019-03-29T17:40:46.246Z,10.58
2019-03-29T17:43:15.499Z,11.15
2019-03-29T17:45:45.003Z,13.73
2019-03-29T17:48:14.234Z,11.83
2019-03-29T17:50:43.492Z,15.77
2019-03-29T17:53:13.869Z,9.78
2019-03-29T17:55:43.842Z,12.97
2019-03-29T17:58:13.378Z,10.48
2019-03-29T18:00:42.926Z,10.93
2019-03-29T18:03:12.151Z,11.22
2019-03-29T18:05:41.785Z,14.63
2019-03-29T18:08:11.034Z,10.25
2019-03-29T18:10:40.493Z,12.73
2019-03-29T18:13:10.003Z,9.03
2019-03-29T18:15:39.292Z,10.20
2019-03-29T18:18:08.799Z,13.77
2019-03-29T18:20:38.351Z,13.03
2019-03-29T18:23:08.134Z,14.20
2019-03-29T18:25:37.560Z,10.03
2019-03-29T18:28:06.789Z,8.77
2019-03-29T18:30:38.107Z,15.35
2019-03-29T18:33:07.908Z,20.13
2019-03-29T18:35:37.312Z,13.80
2019-03-29T18:38:06.859Z,15.70
2019-03-29T18:40:36.281Z,13.40
2019-03-29T18:43:05.709Z,12.03
2019-03-29T18:45:35.298Z,16.43
2019-03-29T18:48:04.820Z,14.53
2019-03-29T18:50:34.320Z,11.70
2019-03-29T18:53:03.558Z,18.07
2019-03-29T18:55:32.777Z,16.23
2019-03-29T18:58:05.727Z,14.83
2019-03-29T19:00:35.153Z,17.77
2019-03-29T19:03:05.268Z,15.40
2019-03-29T19:05:36.000Z,15.47
2019-03-29T19:08:05.549Z,15.83
2019-03-29T19:10:38.023Z,21.83
2019-03-29T19:13:07.540Z,15.60
2019-03-29T19:15:37.132Z,16.00
2019-03-29T19:18:06.696Z,14.83
2019-03-29T19:20:36.261Z,20.67
2019-03-29T19:23:05.842Z,14.70
2019-03-29T19:25:35.080Z,18.07
2019-03-29T19:28:04.336Z,19.07
2019-03-29T19:30:33.731Z,18.70
2019-03-29T19:33:03.449Z,15.40
2019-03-29T19:35:32.962Z,19.00
2019-03-29T19:38:02.292Z,16.23
2019-03-29T19:40:31.780Z,19.03
2019-03-29T19:43:01.390Z,17.63
2019-03-29T19:45:34.052Z,17.77
2019-03-29T19:48:02.570Z,17.67
2019-03-29T19:50:31.839Z,14.77
2019-03-29T19:53:01.183Z,24.80
2019-03-29T19:55:31.030Z,19.87
2019-03-29T19:58:00.518Z,16.13
2019-03-29T20:00:38.676Z,18.77
2019-03-29T20:03:08.125Z,13.70
2019-03-29T20:05:37.695Z,11.43
2019-03-29T20:08:06.992Z,17.93
2019-03-29T20:10:36.690Z,17.67
2019-03-29T20:13:06.025Z,20.17
2019-03-29T20:15:35.612Z,14.63
2019-03-29T20:18:05.172Z,16.73
2019-03-29T20:20:34.621Z,11.63
2019-03-29T20:23:04.111Z,13.77
2019-03-29T20:25:33.414Z,12.43
2019-03-29T20:28:02.630Z,13.67
2019-03-29T20:30:32.290Z,19.30
2019-03-29T20:33:01.481Z,14.67
2019-03-29T20:35:30.938Z,13.67
2019-03-29T20:38:00.203Z,15.27
2019-03-29T20:40:31.968Z,16.73
2019-03-29T20:43:01.657Z,10.23
2019-03-29T20:45:30.901Z,24.47
2019-03-29T20:48:00.121Z,16.87
2019-03-29T20:50:29.492Z,16.63
2019-03-29T20:52:59.067Z,11.77
2019-03-29T20:55:28.327Z,10.40
2019-03-29T20:57:57.756Z,16.23
2019-03-29T21:00:27.561Z,13.10
2019-03-29T21:02:56.820Z,14.47
2019-03-29T21:05:26.560Z,18.37
2019-03-29T21:07:55.863Z,12.40
2019-03-29T21:10:26.297Z,14.93
2019-03-29T21:12:56.671Z,13.70
2019-03-29T21:15:26.293Z,20.17
2019-03-29T21:17:57.774Z,17.17
2019-03-29T21:20:26.849Z,17.03
2019-03-29T21:22:56.198Z,12.43
2019-03-29T21:25:26.105Z,16.33
2019-03-29T21:27:55.577Z,21.27
2019-03-29T21:30:24.924Z,15.07
2019-03-29T21:32:54.138Z,15.30
2019-03-29T21:35:23.351Z,10.67
2019-03-29T21:37:56.099Z,11.53
2019-03-29T21:40:25.373Z,18.23
2019-03-29T21:42:54.818Z,12.93
2019-03-29T21:45:28.945Z,18.73
2019-03-29T21:48:04.612Z,14.20
2019-03-29T21:50:26.890Z,23.90
2019-03-29T21:52:56.430Z,18.80
2019-03-29T21:55:27.069Z,13.10
2019-03-29T21:57:56.509Z,8.13
2019-03-29T22:00:26.230Z,12.77
2019-03-29T22:02:56.489Z,8.43
2019-03-29T22:05:26.341Z,18.30
2019-03-29T22:08:01.342Z,11.97
2019-03-29T22:10:30.573Z,13.27
2019-03-29T22:12:59.789Z,16.63
2019-03-29T22:15:29.269Z,10.53
2019-03-29T22:17:58.594Z,9.70
2019-03-29T22:20:27.884Z,13.30
2019-03-29T22:22:57.502Z,9.83
2019-03-29T22:25:26.941Z,9.83
2019-03-29T22:27:56.159Z,8.37
2019-03-29T22:30:25.629Z,11.30
2019-03-29T22:32:55.300Z,8.70
2019-03-29T22:35:24.772Z,8.83
2019-03-29T22:37:54.016Z,5.80
2019-03-29T22:40:23.244Z,12.83
2019-03-29T22:42:52.517Z,10.00
2019-03-29T22:45:21.760Z,11.70
2019-03-29T22:47:51.236Z,11.47
2019-03-29T22:50:20.605Z,9.10
2019-03-29T22:52:50.685Z,10.00
2019-03-29T22:55:19.962Z,9.83
2019-03-29T22:57:49.165Z,17.40
2019-03-29T23:00:32.393Z,7.63
2019-03-29T23:03:01.614Z,8.53
2019-03-29T23:05:30.886Z,8.47
2019-03-29T23:08:00.456Z,7.00
2019-03-29T23:10:29.968Z,8.50
2019-03-29T23:12:59.231Z,10.97
2019-03-29T23:15:28.814Z,12.07
2019-03-29T23:17:58.103Z,8.73
2019-03-29T23:20:27.290Z,8.67
2019-03-29T23:22:56.574Z,10.43
2019-03-29T23:25:25.802Z,9.57
2019-03-29T23:27:55.014Z,10.53
2019-03-29T23:30:24.877Z,10.70
2019-03-29T23:32:54.336Z,8.50
2019-03-29T23:35:23.902Z,10.47
2019-03-29T23:37:54.209Z,11.50
2019-03-29T23:40:24.288Z,14.37
2019-03-29T23:42:53.738Z,11.50
2019-03-29T23:45:22.990Z,8.87
2019-03-29T23:47:52.682Z,12.27
2019-03-29T23:50:22.918Z,10.17
2019-03-29T23:52:52.153Z,10.60
2019-03-29T23:55:21.407Z,12.40
2019-03-29T23:57:50.629Z,10.57
